createdAt,value
2023-04-07T00:00:19.603Z,937.14
2023-04-07T00:01:20.636Z,937.09
2023-04-07T00:02:21.630Z,937.07
2023-04-07T00:03:22.286Z,937.1
2023-04-07T00:04:23.178Z,937.04
2023-04-07T00:05:23.868Z,937.08
2023-04-07T00:06:24.198Z,937.07
2023-04-07T00:07:24.697Z,937.05
2023-04-07T00:08:25.607Z,937.06
2023-04-07T00:09:26.695Z,937.06
2023-04-07T00:10:27.213Z,937.05
2023-04-07T00:11:27.716Z,937.05
2023-04-07T00:12:28.268Z,937.05
2023-04-07T00:13:29.560Z,937.02
2023-04-07T00:14:29.317Z,937.06
2023-04-07T00:15:29.984Z,937.02
2023-04-07T00:16:30.354Z,937.04
2023-04-07T00:17:31.032Z,937
2023-04-07T00:18:32.057Z,936.98
2023-04-07T00:19:32.540Z,936.98
2023-04-07T00:20:33.221Z,936.95
2023-04-07T00:21:33.698Z,936.95
2023-04-07T00:22:34.603Z,936.94
2023-04-07T00:23:35.556Z,936.92
2023-04-07T00:24:35.652Z,936.9
2023-04-07T00:25:35.794Z,936.91
2023-04-07T00:26:36.505Z,936.9
2023-04-07T00:27:36.997Z,936.89
2023-04-07T00:28:37.696Z,936.89
2023-04-07T00:29:38.019Z,936.92
2023-04-07T00:30:38.300Z,936.93
2023-04-07T00:31:38.704Z,936.9
2023-04-07T00:32:39.617Z,936.89
2023-04-07T00:33:40.582Z,936.86
2023-04-07T00:34:41.077Z,936.89
2023-04-07T00:35:41.714Z,936.87
2023-04-07T00:36:42.673Z,936.88
2023-04-07T00:37:43.566Z,936.86
2023-04-07T00:38:44.145Z,936.8
2023-04-07T00:39:44.660Z,936.78
2023-04-07T00:40:45.125Z,936.79
2023-04-07T00:41:45.841Z,936.78
2023-04-07T00:42:46.610Z,936.78
2023-04-07T00:43:47.383Z,936.79
2023-04-07T00:44:48.323Z,936.85
2023-04-07T00:45:48.536Z,936.81
2023-04-07T00:46:49.083Z,936.81
2023-04-07T00:47:49.983Z,936.8
2023-04-07T00:48:50.446Z,936.81
2023-04-07T00:49:50.892Z,936.77
2023-04-07T00:50:51.065Z,936.78
2023-04-07T00:51:51.360Z,936.75
2023-04-07T00:52:51.858Z,936.75
2023-04-07T00:53:52.298Z,936.76
2023-04-07T00:54:52.624Z,936.75
2023-04-07T00:55:53.650Z,936.75
2023-04-07T00:56:54.604Z,936.76
2023-04-07T00:57:55.516Z,936.77
2023-04-07T00:58:56.012Z,936.83
2023-04-07T00:59:56.510Z,936.74
2023-04-07T01:00:57.263Z,936.74
2023-04-07T01:01:57.862Z,936.73
2023-04-07T01:02:58.630Z,936.75
2023-04-07T01:03:59.602Z,936.72
2023-04-07T01:05:00.134Z,936.74
2023-04-07T01:06:00.948Z,936.76
2023-04-07T01:07:01.096Z,936.75
2023-04-07T01:08:01.607Z,936.76
2023-04-07T01:09:02.539Z,936.74
2023-04-07T01:10:03.418Z,936.76
2023-04-07T01:11:04.084Z,936.76
2023-04-07T01:12:04.552Z,936.73
2023-04-07T01:13:05.293Z,936.7
2023-04-07T01:14:06.011Z,936.72
2023-04-07T01:15:06.314Z,936.71
2023-04-07T01:16:07.113Z,936.71
2023-04-07T01:17:08.039Z,936.7
2023-04-07T01:18:08.978Z,936.69
2023-04-07T01:19:09.171Z,936.71
2023-04-07T01:20:09.872Z,936.68
2023-04-07T01:21:10.038Z,936.66
2023-04-07T01:22:10.330Z,936.65
2023-04-07T01:23:10.755Z,936.7
2023-04-07T01:24:11.464Z,936.64
2023-04-07T01:25:11.813Z,936.66
2023-04-07T01:26:12.640Z,936.62
2023-04-07T01:27:13.370Z,936.62
2023-04-07T01:28:14.123Z,936.63
2023-04-07T01:29:15.032Z,936.66
2023-04-07T01:30:15.767Z,936.65
2023-04-07T01:31:16.096Z,936.64
2023-04-07T01:32:16.982Z,936.68
2023-04-07T01:33:17.526Z,936.64
2023-04-07T01:34:17.991Z,936.69
2023-04-07T01:35:18.476Z,936.7
2023-04-07T01:36:19.569Z,936.71
2023-04-07T01:37:20.126Z,936.71
2023-04-07T01:38:20.229Z,936.74
2023-04-07T01:39:20.969Z,936.76
2023-04-07T01:40:21.683Z,936.77
2023-04-07T01:41:22.367Z,936.73
2023-04-07T01:42:22.865Z,936.75
2023-04-07T01:43:23.362Z,936.73
2023-04-07T01:44:23.882Z,936.72
2023-04-07T01:45:24.600Z,936.65
2023-04-07T01:46:24.992Z,936.66
2023-04-07T01:47:25.718Z,936.62
2023-04-07T01:48:26.424Z,936.64
2023-04-07T01:49:27.418Z,936.63
2023-04-07T01:50:27.946Z,936.6
2023-04-07T01:51:28.658Z,936.6
2023-04-07T01:52:29.341Z,936.62
2023-04-07T01:53:29.843Z,936.63
2023-04-07T01:54:30.775Z,936.62
2023-04-07T01:55:31.465Z,936.63
2023-04-07T01:56:32.048Z,936.55
2023-04-07T01:57:32.586Z,936.58
2023-04-07T01:58:33.309Z,936.57
2023-04-07T01:59:33.792Z,936.52
2023-04-07T02:00:34.677Z,936.5
2023-04-07T02:01:35.530Z,936.51
2023-04-07T02:02:36.121Z,936.48
2023-04-07T02:03:36.961Z,936.45
2023-04-07T02:04:37.104Z,936.43
2023-04-07T02:05:38.012Z,936.46
2023-04-07T02:06:38.679Z,936.46
2023-04-07T02:07:39.559Z,936.41
2023-04-07T02:08:40.245Z,936.45
2023-04-07T02:09:41.090Z,936.42
2023-04-07T02:10:41.612Z,936.42
2023-04-07T02:11:42.314Z,936.44
2023-04-07T02:12:42.593Z,936.41
2023-04-07T02:13:43.514Z,936.42
2023-04-07T02:14:44.008Z,936.42
2023-04-07T02:15:44.515Z,936.43
2023-04-07T02:16:46.272Z,936.43
2023-04-07T02:17:45.733Z,936.46
2023-04-07T02:18:45.906Z,936.42
2023-04-07T02:19:46.883Z,936.47
2023-04-07T02:20:47.574Z,936.46
2023-04-07T02:21:48.482Z,936.47
2023-04-07T02:22:48.962Z,936.49
2023-04-07T02:23:49.652Z,936.44
2023-04-07T02:24:50.548Z,936.46
2023-04-07T02:25:51.640Z,936.44
2023-04-07T02:26:52.096Z,936.41
2023-04-07T02:27:52.841Z,936.45
2023-04-07T02:28:53.357Z,936.46
2023-04-07T02:29:53.859Z,936.47
2023-04-07T02:30:54.527Z,936.47
2023-04-07T02:31:54.844Z,936.44
2023-04-07T02:32:55.665Z,936.43
2023-04-07T02:33:56.452Z,936.43
2023-04-07T02:34:56.694Z,936.42
2023-04-07T02:35:57.230Z,936.38
2023-04-07T02:36:57.897Z,936.38
2023-04-07T02:37:58.477Z,936.39
2023-04-07T02:38:58.994Z,936.36
2023-04-07T02:39:59.580Z,936.34
2023-04-07T02:41:00.114Z,936.3
2023-04-07T02:42:00.811Z,936.31
2023-04-07T02:43:01.898Z,936.34
2023-04-07T02:44:02.584Z,936.36
2023-04-07T02:45:03.317Z,936.31
2023-04-07T02:46:04.105Z,936.3
2023-04-07T02:47:05.013Z,936.29
2023-04-07T02:48:05.533Z,936.31
2023-04-07T02:49:06.231Z,936.29
2023-04-07T02:50:07.246Z,936.3
2023-04-07T02:51:08.180Z,936.31
2023-04-07T02:52:09.136Z,936.3
2023-04-07T02:53:09.432Z,936.32
2023-04-07T02:54:10.130Z,936.29
2023-04-07T02:55:11.116Z,936.29
2023-04-07T02:56:11.237Z,936.27
2023-04-07T02:57:12.068Z,936.23
2023-04-07T02:58:12.752Z,936.28
2023-04-07T02:59:13.072Z,936.23
2023-04-07T03:00:13.578Z,936.29
2023-04-07T03:01:13.979Z,936.24
2023-04-07T03:02:14.119Z,936.25
2023-04-07T03:03:14.607Z,936.28
2023-04-07T03:04:15.402Z,936.22
2023-04-07T03:05:15.881Z,936.24
2023-04-07T03:06:16.647Z,936.25
2023-04-07T03:07:17.688Z,936.2
2023-04-07T03:08:18.389Z,936.21
2023-04-07T03:09:18.885Z,936.25
2023-04-07T03:10:19.395Z,936.18
2023-04-07T03:11:20.093Z,936.17
2023-04-07T03:12:21.010Z,936.17
2023-04-07T03:13:21.908Z,936.14
2023-04-07T03:14:22.458Z,936.12
2023-04-07T03:15:23.007Z,936.13
2023-04-07T03:16:23.742Z,936.12
2023-04-07T03:17:24.600Z,936.13
2023-04-07T03:18:25.525Z,936.11
2023-04-07T03:19:26.221Z,936.13
2023-04-07T03:20:26.977Z,936.1
2023-04-07T03:21:27.463Z,936.08
2023-04-07T03:22:27.773Z,936.09
2023-04-07T03:23:28.062Z,936.08
2023-04-07T03:24:28.834Z,936.07
2023-04-07T03:25:29.532Z,936.01
2023-04-07T03:26:29.753Z,936.03
2023-04-07T03:27:30.168Z,936.03
2023-04-07T03:28:30.679Z,936.02
2023-04-07T03:29:31.401Z,936
2023-04-07T03:30:31.557Z,936
2023-04-07T03:31:31.786Z,935.95
2023-04-07T03:32:32.307Z,935.96
2023-04-07T03:33:32.838Z,935.94
2023-04-07T03:34:33.743Z,935.93
2023-04-07T03:35:34.736Z,935.96
2023-04-07T03:36:35.544Z,935.95
2023-04-07T03:37:35.812Z,935.88
2023-04-07T03:38:35.928Z,935.91
2023-04-07T03:39:36.619Z,935.89
2023-04-07T03:40:37.625Z,935.87
2023-04-07T03:41:38.519Z,935.87
2023-04-07T03:42:39.425Z,935.88
2023-04-07T03:43:39.902Z,935.87
2023-04-07T03:44:40.247Z,935.85
2023-04-07T03:45:40.728Z,935.85
2023-04-07T03:46:41.329Z,935.86
2023-04-07T03:47:41.795Z,935.82
2023-04-07T03:48:42.674Z,935.8
2023-04-07T03:49:42.991Z,935.85
2023-04-07T03:50:43.743Z,935.8
2023-04-07T03:51:44.417Z,935.78
2023-04-07T03:52:44.703Z,935.8
2023-04-07T03:53:45.407Z,935.76
2023-04-07T03:54:46.197Z,935.77
2023-04-07T03:55:46.333Z,935.77
2023-04-07T03:56:47.008Z,935.74
2023-04-07T03:57:47.409Z,935.7
2023-04-07T03:58:48.159Z,935.71
2023-04-07T03:59:48.639Z,935.7
2023-04-07T04:00:49.348Z,935.69
2023-04-07T04:01:50.256Z,935.65
2023-04-07T04:02:50.958Z,935.61
2023-04-07T04:03:51.580Z,935.64
2023-04-07T04:04:52.323Z,935.61
2023-04-07T04:05:52.577Z,935.61
2023-04-07T04:06:53.054Z,935.58
2023-04-07T04:07:53.868Z,935.58
2023-04-07T04:08:54.365Z,935.55
2023-04-07T04:09:55.261Z,935.53
2023-04-07T04:10:55.976Z,935.54
2023-04-07T04:11:56.455Z,935.51
2023-04-07T04:12:57.155Z,935.53
2023-04-07T04:13:57.891Z,935.5
2023-04-07T04:14:58.427Z,935.53
2023-04-07T04:15:58.944Z,935.45
2023-04-07T04:16:59.041Z,935.45
2023-04-07T04:18:00.066Z,935.48
2023-04-07T04:19:00.849Z,935.47
2023-04-07T04:20:01.534Z,935.46
2023-04-07T04:21:02.387Z,935.44
2023-04-07T04:22:02.874Z,935.46
2023-04-07T04:23:03.383Z,935.41
2023-04-07T04:24:03.866Z,935.44
2023-04-07T04:25:04.194Z,935.41
2023-04-07T04:26:04.735Z,935.42
2023-04-07T04:27:05.810Z,935.47
2023-04-07T04:28:06.177Z,935.41
2023-04-07T04:29:06.459Z,935.38
2023-04-07T04:30:07.384Z,935.4
2023-04-07T04:31:07.905Z,935.39
2023-04-07T04:32:08.811Z,935.38
2023-04-07T04:33:09.569Z,935.42
2023-04-07T04:34:09.896Z,935.39
2023-04-07T04:35:10.614Z,935.39
2023-04-07T04:36:11.667Z,935.41
2023-04-07T04:37:12.336Z,935.36
2023-04-07T04:38:12.523Z,935.42
2023-04-07T04:39:13.603Z,935.41
2023-04-07T04:40:14.411Z,935.43
2023-04-07T04:41:15.143Z,935.43
2023-04-07T04:42:15.832Z,935.41
2023-04-07T04:43:16.769Z,935.41
2023-04-07T04:44:17.284Z,935.43
2023-04-07T04:45:17.619Z,935.49
2023-04-07T04:46:18.235Z,935.49
2023-04-07T04:47:18.894Z,935.45
2023-04-07T04:48:19.877Z,935.51
2023-04-07T04:49:20.581Z,935.52
2023-04-07T04:50:21.273Z,935.47
2023-04-07T04:51:22.295Z,935.5
2023-04-07T04:52:23.000Z,935.52
2023-04-07T04:53:23.328Z,935.5
2023-04-07T04:54:24.178Z,935.48
2023-04-07T04:55:24.708Z,935.49
2023-04-07T04:56:25.397Z,935.47
2023-04-07T04:57:25.921Z,935.43
2023-04-07T04:58:26.316Z,935.42
2023-04-07T04:59:26.830Z,935.43
2023-04-07T05:00:27.321Z,935.42
2023-04-07T05:01:27.997Z,935.42
2023-04-07T05:02:28.378Z,935.39
2023-04-07T05:03:28.754Z,935.41
2023-04-07T05:04:29.260Z,935.37
2023-04-07T05:05:29.522Z,935.38
2023-04-07T05:06:29.712Z,935.34
2023-04-07T05:07:30.050Z,935.35
2023-04-07T05:08:31.065Z,935.4
2023-04-07T05:09:31.781Z,935.37
2023-04-07T05:10:32.709Z,935.4
2023-04-07T05:11:33.058Z,935.33
2023-04-07T05:12:33.774Z,935.34
2023-04-07T05:13:34.458Z,935.31
2023-04-07T05:14:35.181Z,935.3
2023-04-07T05:15:35.901Z,935.33
2023-04-07T05:16:37.011Z,935.29
2023-04-07T05:17:37.750Z,935.28
2023-04-07T05:18:38.315Z,935.25
2023-04-07T05:19:38.995Z,935.24
2023-04-07T05:20:39.514Z,935.27
2023-04-07T05:21:39.705Z,935.24
2023-04-07T05:22:40.403Z,935.26
2023-04-07T05:23:40.728Z,935.28
2023-04-07T05:24:40.833Z,935.32
2023-04-07T05:25:41.783Z,935.33
2023-04-07T05:26:42.486Z,935.33
2023-04-07T05:27:43.186Z,935.31
2023-04-07T05:28:44.254Z,935.31
2023-04-07T05:29:44.753Z,935.32
2023-04-07T05:30:45.234Z,935.3
2023-04-07T05:31:45.976Z,935.34
2023-04-07T05:32:46.832Z,935.32
2023-04-07T05:33:47.899Z,935.36
2023-04-07T05:34:48.914Z,935.33
2023-04-07T05:35:49.513Z,935.35
2023-04-07T05:36:49.982Z,935.34
2023-04-07T05:37:50.689Z,935.36
2023-04-07T05:38:51.146Z,935.33
2023-04-07T05:39:51.840Z,935.33
2023-04-07T05:40:52.520Z,935.33
2023-04-07T05:41:52.683Z,935.37
2023-04-07T05:42:53.309Z,935.34
2023-04-07T05:43:53.996Z,935.31
2023-04-07T05:44:54.488Z,935.28
2023-04-07T05:45:55.217Z,935.28
2023-04-07T05:46:55.564Z,935.28
2023-04-07T05:47:56.532Z,935.27
2023-04-07T05:48:57.974Z,935.23
2023-04-07T05:49:57.488Z,935.27
2023-04-07T05:50:58.328Z,935.26
2023-04-07T05:51:59.153Z,935.24
2023-04-07T05:52:59.849Z,935.26
2023-04-07T05:54:00.148Z,935.22
2023-04-07T05:55:00.661Z,935.17
2023-04-07T05:56:01.584Z,935.22
2023-04-07T05:57:02.510Z,935.22
2023-04-07T05:58:03.071Z,935.23
2023-04-07T05:59:03.602Z,935.24
2023-04-07T06:00:03.896Z,935.18
2023-04-07T06:01:04.393Z,935.15
2023-04-07T06:02:05.221Z,935.19
2023-04-07T06:03:05.971Z,935.19
2023-04-07T06:04:06.090Z,935.2
2023-04-07T06:05:06.969Z,935.21
2023-04-07T06:06:07.310Z,935.23
2023-04-07T06:07:08.258Z,935.21
2023-04-07T06:08:08.788Z,935.25
2023-04-07T06:09:09.256Z,935.23
2023-04-07T06:10:10.148Z,935.25
2023-04-07T06:11:10.657Z,935.27
2023-04-07T06:12:11.361Z,935.24
2023-04-07T06:13:11.878Z,935.2
2023-04-07T06:14:12.602Z,935.21
2023-04-07T06:15:13.146Z,935.2
2023-04-07T06:16:13.888Z,935.17
2023-04-07T06:17:14.378Z,935.18
2023-04-07T06:18:15.041Z,935.22
2023-04-07T06:19:15.416Z,935.16
2023-04-07T06:20:15.552Z,935.14
2023-04-07T06:21:16.071Z,935.13
2023-04-07T06:22:17.041Z,935.11
2023-04-07T06:23:17.946Z,935.07
2023-04-07T06:24:18.253Z,935.08
2023-04-07T06:25:18.740Z,935.01
2023-04-07T06:26:19.796Z,935.01
2023-04-07T06:27:20.538Z,935.04
2023-04-07T06:28:20.816Z,935.03
2023-04-07T06:29:21.305Z,935
2023-04-07T06:30:21.618Z,934.98
2023-04-07T06:31:21.805Z,935.01
2023-04-07T06:32:22.291Z,935.02
2023-04-07T06:33:23.244Z,935.06
2023-04-07T06:34:24.163Z,935.08
2023-04-07T06:35:25.070Z,935.06
2023-04-07T06:36:25.637Z,935.09
2023-04-07T06:37:25.885Z,935.1
2023-04-07T06:38:26.168Z,935.12
2023-04-07T06:39:26.982Z,935.08
2023-04-07T06:40:27.453Z,935.08
2023-04-07T06:41:28.348Z,935.1
2023-04-07T06:42:29.138Z,935.08
2023-04-07T06:43:29.831Z,935.06
2023-04-07T06:44:30.127Z,935.02
2023-04-07T06:45:30.839Z,935.04
2023-04-07T06:46:31.481Z,935
2023-04-07T06:47:32.443Z,935.02
2023-04-07T06:48:33.461Z,935
2023-04-07T06:49:35.145Z,935.04
2023-04-07T06:50:34.327Z,935.05
2023-04-07T06:51:34.965Z,935.09
2023-04-07T06:52:35.163Z,935.06
2023-04-07T06:53:35.658Z,935.12
2023-04-07T06:54:35.893Z,935.15
2023-04-07T06:55:36.400Z,935.1
2023-04-07T06:56:37.111Z,935.12
2023-04-07T06:57:37.216Z,935.15
2023-04-07T06:58:37.930Z,935.09
2023-04-07T06:59:38.380Z,935.09
2023-04-07T07:00:39.094Z,935.1
2023-04-07T07:01:40.190Z,935.1
2023-04-07T07:02:40.169Z,935.09
2023-04-07T07:03:41.313Z,935.09
2023-04-07T07:04:41.531Z,935.09
2023-04-07T07:05:41.847Z,935.1
2023-04-07T07:06:42.614Z,935.06
2023-04-07T07:07:42.772Z,935.09
2023-04-07T07:08:43.663Z,935.08
2023-04-07T07:09:43.840Z,935.1
2023-04-07T07:10:44.134Z,935.12
2023-04-07T07:11:44.683Z,935.14
2023-04-07T07:12:44.968Z,935.11
2023-04-07T07:13:45.525Z,935.09
2023-04-07T07:14:46.064Z,935.12
2023-04-07T07:15:47.020Z,935.1
2023-04-07T07:16:47.752Z,935.06
2023-04-07T07:17:48.780Z,935.09
2023-04-07T07:18:48.941Z,935.05
2023-04-07T07:19:49.138Z,935.03
2023-04-07T07:20:49.847Z,935.07
2023-04-07T07:21:49.977Z,935.08
2023-04-07T07:22:50.957Z,935.09
2023-04-07T07:23:51.137Z,935.08
2023-04-07T07:24:51.870Z,935.08
2023-04-07T07:25:52.158Z,935.08
2023-04-07T07:26:52.686Z,935.07
2023-04-07T07:27:53.633Z,935.05
2023-04-07T07:28:54.121Z,935.04
2023-04-07T07:29:54.945Z,935.04
2023-04-07T07:30:55.515Z,935.01
2023-04-07T07:31:56.458Z,935.05
2023-04-07T07:32:57.183Z,935.06
2023-04-07T07:33:58.081Z,935.07
2023-04-07T07:34:58.608Z,935.01
2023-04-07T07:35:58.951Z,935.02
2023-04-07T07:36:59.035Z,935
2023-04-07T07:37:59.216Z,934.99
2023-04-07T07:38:59.721Z,934.99
2023-04-07T07:40:00.165Z,934.99
2023-04-07T07:41:00.696Z,934.95
2023-04-07T07:42:01.497Z,934.96
2023-04-07T07:43:01.816Z,934.98
2023-04-07T07:44:02.825Z,934.95
2023-04-07T07:45:03.319Z,935
2023-04-07T07:46:04.038Z,934.98
2023-04-07T07:47:05.069Z,934.98
2023-04-07T07:48:05.844Z,934.99
2023-04-07T07:49:06.382Z,935.02
2023-04-07T07:50:06.778Z,935.02
2023-04-07T07:51:07.461Z,935.02
2023-04-07T07:52:10.264Z,935.03
2023-04-07T07:53:08.514Z,935.03
2023-04-07T07:54:08.992Z,935.04
2023-04-07T07:55:09.291Z,935.01
2023-04-07T07:56:10.066Z,935
2023-04-07T07:57:10.562Z,935
2023-04-07T07:58:11.084Z,934.97
2023-04-07T07:59:11.795Z,935
2023-04-07T08:00:12.173Z,934.96
2023-04-07T08:01:12.278Z,934.96
2023-04-07T08:02:12.800Z,934.94
2023-04-07T08:03:12.971Z,934.94
2023-04-07T08:04:13.372Z,934.93
2023-04-07T08:05:13.513Z,934.92
2023-04-07T08:06:14.042Z,934.9
2023-04-07T08:07:14.738Z,934.95
2023-04-07T08:08:14.842Z,934.98
2023-04-07T08:09:15.754Z,934.97
2023-04-07T08:10:16.842Z,934.9
2023-04-07T08:11:17.662Z,934.92
2023-04-07T08:12:18.458Z,934.9
2023-04-07T08:13:19.193Z,934.92
2023-04-07T08:14:19.876Z,934.88
2023-04-07T08:15:20.389Z,934.91
2023-04-07T08:16:20.524Z,934.94
2023-04-07T08:17:21.429Z,934.97
2023-04-07T08:18:21.602Z,934.96
2023-04-07T08:19:22.177Z,934.91
2023-04-07T08:20:22.595Z,934.95
2023-04-07T08:21:23.366Z,934.94
2023-04-07T08:22:23.917Z,934.96
2023-04-07T08:23:24.930Z,934.97
2023-04-07T08:24:25.276Z,934.98
2023-04-07T08:25:25.792Z,934.94
2023-04-07T08:26:26.732Z,934.93
2023-04-07T08:27:27.074Z,934.92
2023-04-07T08:28:28.002Z,934.95
2023-04-07T08:29:29.522Z,934.94
2023-04-07T08:30:29.296Z,934.97
2023-04-07T08:31:29.658Z,934.96
2023-04-07T08:32:30.605Z,934.96
2023-04-07T08:33:30.979Z,934.97
2023-04-07T08:34:31.957Z,935.02
2023-04-07T08:35:32.892Z,935
2023-04-07T08:36:33.488Z,935.02
2023-04-07T08:37:34.222Z,935
2023-04-07T08:38:35.284Z,935.02
2023-04-07T08:39:35.801Z,935.04
2023-04-07T08:40:36.204Z,935.01
2023-04-07T08:41:36.772Z,935
2023-04-07T08:42:37.302Z,934.97
2023-04-07T08:43:38.260Z,935.02
2023-04-07T08:44:38.372Z,935
2023-04-07T08:45:38.873Z,935.03
2023-04-07T08:46:39.141Z,935
2023-04-07T08:47:39.284Z,934.99
2023-04-07T08:48:39.374Z,934.99
2023-04-07T08:49:39.888Z,934.98
2023-04-07T08:50:40.299Z,935.02
2023-04-07T08:51:41.011Z,934.99
2023-04-07T08:52:41.945Z,934.98
2023-04-07T08:53:42.962Z,935.01
2023-04-07T08:54:43.877Z,935.01
2023-04-07T08:55:44.411Z,935.04
2023-04-07T08:56:44.546Z,935.01
2023-04-07T08:57:45.030Z,935
2023-04-07T08:58:45.828Z,934.98
2023-04-07T08:59:46.316Z,935.02
2023-04-07T09:00:46.786Z,935.02
2023-04-07T09:01:47.619Z,935.03
2023-04-07T09:02:48.618Z,934.99
2023-04-07T09:03:49.137Z,934.99
2023-04-07T09:04:49.504Z,934.97
2023-04-07T09:05:50.415Z,934.95
2023-04-07T09:06:51.187Z,934.96
2023-04-07T09:07:52.126Z,934.96
2023-04-07T09:08:52.352Z,934.94
2023-04-07T09:09:53.105Z,934.96
2023-04-07T09:10:53.353Z,934.94
2023-04-07T09:11:53.519Z,934.95
2023-04-07T09:12:54.015Z,934.95
2023-04-07T09:13:54.736Z,934.98
2023-04-07T09:14:54.851Z,934.95
2023-04-07T09:15:55.167Z,934.96
2023-04-07T09:16:55.888Z,934.98
2023-04-07T09:17:56.502Z,934.98
2023-04-07T09:18:57.113Z,934.97
2023-04-07T09:19:57.673Z,935.01
2023-04-07T09:20:58.518Z,935.04
2023-04-07T09:21:59.243Z,934.99
2023-04-07T09:22:59.986Z,934.97
2023-04-07T09:24:00.977Z,935
2023-04-07T09:25:01.498Z,935.01
2023-04-07T09:26:02.233Z,935.04
2023-04-07T09:27:03.164Z,935.06
2023-04-07T09:28:03.575Z,935.04
2023-04-07T09:29:04.522Z,934.98
2023-04-07T09:30:05.350Z,934.98
2023-04-07T09:31:05.836Z,934.94
2023-04-07T09:32:06.610Z,934.9
2023-04-07T09:33:06.754Z,934.93
2023-04-07T09:34:07.513Z,934.91
2023-04-07T09:35:08.042Z,934.89
2023-04-07T09:36:09.000Z,934.87
2023-04-07T09:37:09.628Z,934.84
2023-04-07T09:38:10.571Z,934.81
2023-04-07T09:39:11.596Z,934.83
2023-04-07T09:40:12.346Z,934.81
2023-04-07T09:41:12.812Z,934.77
2023-04-07T09:42:13.588Z,934.74
2023-04-07T09:43:13.912Z,934.73
2023-04-07T09:44:14.845Z,934.81
2023-04-07T09:45:23.972Z,934.78
2023-04-07T09:46:16.072Z,934.86
2023-04-07T09:47:16.296Z,934.82
2023-04-07T09:48:16.870Z,934.87
2023-04-07T09:49:17.069Z,934.84
2023-04-07T09:50:17.775Z,934.81
2023-04-07T09:51:18.513Z,934.8
2023-04-07T09:52:18.823Z,934.8
2023-04-07T09:53:19.173Z,934.79
2023-04-07T09:54:20.178Z,934.78
2023-04-07T09:55:20.730Z,934.77
2023-04-07T09:56:21.296Z,934.73
2023-04-07T09:57:22.004Z,934.73
2023-04-07T09:58:22.302Z,934.75
2023-04-07T09:59:23.037Z,934.77
2023-04-07T10:00:23.176Z,934.72
2023-04-07T10:01:23.656Z,934.73
2023-04-07T10:02:24.502Z,934.68
2023-04-07T10:03:25.130Z,934.7
2023-04-07T10:04:25.258Z,934.7
2023-04-07T10:05:26.329Z,934.67
2023-04-07T10:06:26.654Z,934.68
2023-04-07T10:07:27.199Z,934.65
2023-04-07T10:08:27.914Z,934.64
2023-04-07T10:09:28.893Z,934.65
2023-04-07T10:10:29.618Z,934.6
2023-04-07T10:11:30.152Z,934.57
2023-04-07T10:12:31.090Z,934.56
2023-04-07T10:13:31.607Z,934.5
2023-04-07T10:14:31.777Z,934.55
2023-04-07T10:15:32.542Z,934.58
2023-04-07T10:16:32.851Z,934.55
2023-04-07T10:17:33.001Z,934.53
2023-04-07T10:18:33.112Z,934.52
2023-04-07T10:19:33.868Z,934.57
2023-04-07T10:20:34.973Z,934.51
2023-04-07T10:21:35.290Z,934.51
2023-04-07T10:22:35.807Z,934.5
2023-04-07T10:23:36.093Z,934.51
2023-04-07T10:24:36.585Z,934.49
2023-04-07T10:25:37.507Z,934.49
2023-04-07T10:26:39.542Z,934.51
2023-04-07T10:27:39.290Z,934.49
2023-04-07T10:28:40.118Z,934.52
2023-04-07T10:29:40.658Z,934.51
2023-04-07T10:30:41.170Z,934.54
2023-04-07T10:31:42.042Z,934.62
2023-04-07T10:32:42.634Z,934.61
2023-04-07T10:33:42.939Z,934.55
2023-04-07T10:34:43.793Z,934.58
2023-04-07T10:35:44.129Z,934.53
2023-04-07T10:36:44.765Z,934.56
2023-04-07T10:37:45.371Z,934.61
2023-04-07T10:38:46.087Z,934.56
2023-04-07T10:39:46.257Z,934.54
2023-04-07T10:40:46.967Z,934.52
2023-04-07T10:41:47.858Z,934.48
2023-04-07T10:42:48.274Z,934.49
2023-04-07T10:43:49.478Z,934.47
2023-04-07T10:44:49.695Z,934.49
2023-04-07T10:45:50.244Z,934.48
2023-04-07T10:46:51.085Z,934.49
2023-04-07T10:47:51.374Z,934.46
2023-04-07T10:48:51.784Z,934.45
2023-04-07T10:49:52.283Z,934.47
2023-04-07T10:50:52.986Z,934.45
2023-04-07T10:51:53.136Z,934.43
2023-04-07T10:52:53.851Z,934.49
2023-04-07T10:53:53.958Z,934.47
2023-04-07T10:54:54.949Z,934.46
2023-04-07T10:55:55.061Z,934.42
2023-04-07T10:56:56.028Z,934.45
2023-04-07T10:57:56.736Z,934.41
2023-04-07T10:58:57.685Z,934.41
2023-04-07T10:59:58.753Z,934.41
2023-04-07T11:00:59.665Z,934.39
2023-04-07T11:02:00.621Z,934.36
2023-04-07T11:03:01.314Z,934.37
2023-04-07T11:04:01.960Z,934.4
2023-04-07T11:05:02.443Z,934.4
2023-04-07T11:06:03.369Z,934.39
2023-04-07T11:07:04.118Z,934.39
2023-04-07T11:08:04.841Z,934.44
2023-04-07T11:09:05.174Z,934.46
2023-04-07T11:10:05.968Z,934.48
2023-04-07T11:11:06.536Z,934.52
2023-04-07T11:12:06.780Z,934.54
2023-04-07T11:13:07.276Z,934.48
2023-04-07T11:14:07.963Z,934.5
2023-04-07T11:15:08.939Z,934.48
2023-04-07T11:16:09.545Z,934.51
2023-04-07T11:17:10.547Z,934.47
2023-04-07T11:18:11.060Z,934.47
2023-04-07T11:19:11.803Z,934.48
2023-04-07T11:20:12.645Z,934.43
2023-04-07T11:21:12.933Z,934.42
2023-04-07T11:22:26.644Z,934.45
2023-04-07T11:23:15.036Z,934.41
2023-04-07T11:24:15.324Z,934.38
2023-04-07T11:25:15.497Z,934.37
2023-04-07T11:26:15.998Z,934.33
2023-04-07T11:27:16.319Z,934.31
2023-04-07T11:28:17.056Z,934.31
2023-04-07T11:29:18.050Z,934.32
2023-04-07T11:30:18.768Z,934.29
2023-04-07T11:31:19.534Z,934.31
2023-04-07T11:32:20.185Z,934.3
2023-04-07T11:33:20.413Z,934.34
2023-04-07T11:34:21.127Z,934.33
2023-04-07T11:35:21.839Z,934.34
2023-04-07T11:36:22.396Z,934.31
2023-04-07T11:37:23.112Z,934.33
2023-04-07T11:38:23.644Z,934.36
2023-04-07T11:39:23.773Z,934.35
2023-04-07T11:40:24.778Z,934.39
2023-04-07T11:41:25.508Z,934.4
2023-04-07T11:42:26.381Z,934.37
2023-04-07T11:43:27.133Z,934.35
2023-04-07T11:44:27.666Z,934.35
2023-04-07T11:45:28.589Z,934.35
2023-04-07T11:46:29.118Z,934.37
2023-04-07T11:47:30.023Z,934.36
2023-04-07T11:48:30.753Z,934.38
2023-04-07T11:49:31.277Z,934.39
2023-04-07T11:50:31.787Z,934.4
2023-04-07T11:51:32.638Z,934.38
2023-04-07T11:52:32.875Z,934.35
2023-04-07T11:53:33.013Z,934.33
2023-04-07T11:54:33.813Z,934.33
2023-04-07T11:55:34.584Z,934.33
2023-04-07T11:56:35.099Z,934.31
2023-04-07T11:57:35.652Z,934.31
2023-04-07T11:58:36.572Z,934.29
2023-04-07T11:59:37.286Z,934.28
2023-04-07T12:00:37.822Z,934.27
2023-04-07T12:01:38.559Z,934.3
2023-04-07T12:02:39.536Z,934.31
2023-04-07T12:03:39.926Z,934.34
2023-04-07T12:04:40.308Z,934.35
2023-04-07T12:05:40.413Z,934.33
2023-04-07T12:06:41.261Z,934.33
2023-04-07T12:07:42.022Z,934.3
2023-04-07T12:08:42.780Z,934.33
2023-04-07T12:09:43.694Z,934.32
2023-04-07T12:10:44.742Z,934.35
2023-04-07T12:11:45.434Z,934.31
2023-04-07T12:12:46.435Z,934.32
2023-04-07T12:13:47.499Z,934.33
2023-04-07T12:14:47.747Z,934.35
2023-04-07T12:15:48.283Z,934.34
2023-04-07T12:16:49.161Z,934.36
2023-04-07T12:17:49.830Z,934.39
2023-04-07T12:18:50.328Z,934.36
2023-04-07T12:19:50.656Z,934.42
2023-04-07T12:20:51.194Z,934.44
2023-04-07T12:21:51.593Z,934.41
2023-04-07T12:22:52.250Z,934.42
2023-04-07T12:23:52.982Z,934.44
2023-04-07T12:24:53.507Z,934.44
2023-04-07T12:25:54.286Z,934.48
2023-04-07T12:26:55.029Z,934.47
2023-04-07T12:27:55.962Z,934.51
2023-04-07T12:28:56.079Z,934.49
2023-04-07T12:29:56.877Z,934.49
2023-04-07T12:30:57.084Z,934.53
2023-04-07T12:31:57.387Z,934.52
2023-04-07T12:32:57.949Z,934.54
2023-04-07T12:33:58.427Z,934.49
2023-04-07T12:34:59.509Z,934.55
2023-04-07T12:35:59.844Z,934.55
2023-04-07T12:36:59.978Z,934.48
2023-04-07T12:38:00.265Z,934.47
2023-04-07T12:39:01.042Z,934.5
2023-04-07T12:40:01.777Z,934.54